createdAt,value
2023-04-25T00:02:39.476Z,4.73
2023-04-25T00:07:44.607Z,7.43
2023-04-25T00:12:47.928Z,6.53
2023-04-25T00:17:54.328Z,4.77
2023-04-25T00:22:58.460Z,3.87
2023-04-25T00:28:01.887Z,7.77
2023-04-25T00:33:07.047Z,4.70
2023-04-25T00:38:11.134Z,7.03
2023-04-25T00:43:14.320Z,7.60
2023-04-25T00:48:19.837Z,4.17
2023-04-25T00:53:23.784Z,7.53
2023-04-25T00:58:27.484Z,6.80
2023-04-25T01:03:37.524Z,6.20
2023-04-25T01:08:42.964Z,5.23
2023-04-25T01:13:46.516Z,5.57
2023-04-25T01:18:52.762Z,6.17
2023-04-25T01:23:59.898Z,6.13
2023-04-25T01:29:04.935Z,9.10
2023-04-25T01:34:08.518Z,4.00
2023-04-25T01:39:13.510Z,6.03
2023-04-25T01:44:17.646Z,6.97
2023-04-25T01:49:21.982Z,6.93
2023-04-25T01:54:26.788Z,6.27
2023-04-25T01:59:30.278Z,6.80
2023-04-25T02:04:35.263Z,6.17
2023-04-25T02:09:40.761Z,4.83
2023-04-25T02:14:44.231Z,6.60
2023-04-25T02:19:47.590Z,10.63
2023-04-25T02:24:53.335Z,5.60
2023-04-25T02:29:56.591Z,7.17
2023-04-25T02:35:04.827Z,7.20
2023-04-25T02:40:12.196Z,6.43
2023-04-25T02:45:15.589Z,8.63
2023-04-25T02:50:19.958Z,7.87
2023-04-25T02:55:27.065Z,6.40
2023-04-25T03:00:31.535Z,9.73
2023-04-25T03:05:36.294Z,6.47
2023-04-25T03:10:41.230Z,9.43
2023-04-25T03:15:44.926Z,7.80
2023-04-25T03:20:49.051Z,6.30
2023-04-25T03:25:54.296Z,8.53
2023-04-25T03:30:57.747Z,7.20
2023-04-25T03:36:01.031Z,9.23
2023-04-25T03:41:06.784Z,8.53
2023-04-25T03:46:10.116Z,9.30
2023-04-25T03:51:13.877Z,7.80
2023-04-25T03:56:18.793Z,8.80
2023-04-25T04:01:22.650Z,7.50
2023-04-25T04:06:26.710Z,7.23
2023-04-25T04:11:32.568Z,5.67
2023-04-25T04:16:41.206Z,8.13
2023-04-25T04:21:45.491Z,9.13
2023-04-25T04:26:52.074Z,10.13
2023-04-25T04:31:57.044Z,8.00
2023-04-25T04:37:01.638Z,8.03
2023-04-25T04:42:07.779Z,6.53
2023-04-25T04:47:11.799Z,5.73
2023-04-25T04:52:15.829Z,9.10
2023-04-25T04:57:20.637Z,7.07
2023-04-25T05:02:24.816Z,7.20
2023-04-25T05:07:28.734Z,9.27
2023-04-25T05:12:38.553Z,7.60
2023-04-25T05:17:42.864Z,9.43
2023-04-25T05:22:48.963Z,7.93
2023-04-25T05:27:54.550Z,6.67
2023-04-25T05:32:58.695Z,9.68
2023-04-25T05:38:02.013Z,6.72
2023-04-25T05:43:06.924Z,8.60
2023-04-25T05:48:10.795Z,7.15
2023-04-25T05:53:14.235Z,7.18
2023-04-25T05:58:19.990Z,6.38
2023-04-25T06:03:24.016Z,6.72
2023-04-25T06:08:27.958Z,6.00
2023-04-25T06:13:33.981Z,7.13
2023-04-25T06:18:37.424Z,4.43
2023-04-25T06:23:40.912Z,9.82
2023-04-25T06:28:47.116Z,5.68
2023-04-25T06:33:51.543Z,4.35
2023-04-25T06:38:55.468Z,5.55
2023-04-25T06:44:00.266Z,5.32
2023-04-25T06:49:03.444Z,5.60
2023-04-25T06:54:07.351Z,4.45
2023-04-25T06:59:12.013Z,5.20
2023-04-25T07:04:17.963Z,8.43
2023-04-25T07:09:21.704Z,5.93
2023-04-25T07:14:27.253Z,5.35
2023-04-25T07:19:30.956Z,5.68
2023-04-25T07:25:35.093Z,5.70
2023-04-25T07:30:49.835Z,6.50
2023-04-25T07:36:14.045Z,6.70
2023-04-25T07:41:23.531Z,6.13
2023-04-25T07:46:28.400Z,10.27
2023-04-25T07:51:32.702Z,8.25
2023-04-25T07:57:19.812Z,6.53
2023-04-25T08:02:27.555Z,8.50
2023-04-25T08:07:32.073Z,6.57
2023-04-25T08:12:36.055Z,5.07
2023-04-25T08:17:41.121Z,5.15
2023-04-25T08:22:45.283Z,7.73
2023-04-25T08:27:49.852Z,9.63
2023-04-25T08:38:12.534Z,5.72
2023-04-25T08:43:17.275Z,11.13
2023-04-25T08:48:24.064Z,6.63
2023-04-25T08:53:29.333Z,7.28
2023-04-25T08:58:34.925Z,8.95
2023-04-25T09:03:40.951Z,6.78
2023-04-25T09:08:44.785Z,8.13
2023-04-25T09:13:49.252Z,10.75
2023-04-25T09:18:54.896Z,7.85
2023-04-25T09:24:01.208Z,7.40
2023-04-25T09:29:08.432Z,9.23
2023-04-25T09:34:16.871Z,6.95
2023-04-25T09:39:24.061Z,8.52
2023-04-25T09:44:29.330Z,6.68
2023-04-25T09:49:34.892Z,11.53
2023-04-25T09:54:39.283Z,11.90
2023-04-25T09:59:48.181Z,9.90
2023-04-25T10:04:56.561Z,13.05
2023-04-25T10:10:04.974Z,7.40
2023-04-25T10:15:11.545Z,8.65
2023-04-25T10:20:16.856Z,11.10
2023-04-25T10:25:22.846Z,9.98
2023-04-25T10:30:27.038Z,15.82
2023-04-25T10:35:33.793Z,12.50
2023-04-25T10:40:37.311Z,16.80
2023-04-25T10:45:54.244Z,11.15
2023-04-25T10:51:11.397Z,10.73
2023-04-25T10:56:22.451Z,9.45
2023-04-25T11:01:27.684Z,13.38
2023-04-25T11:06:52.048Z,13.18
2023-04-25T11:11:57.523Z,12.30
2023-04-25T11:17:02.127Z,9.73
2023-04-25T11:22:07.925Z,9.70
2023-04-25T11:27:12.655Z,10.27
2023-04-25T11:32:21.662Z,7.27
2023-04-25T11:37:26.692Z,10.97
2023-04-25T11:42:30.430Z,9.03
2023-04-25T11:47:34.430Z,5.97
2023-04-25T11:52:40.500Z,8.03
2023-04-25T11:57:44.815Z,14.03
2023-04-25T12:02:50.056Z,10.20
2023-04-25T12:07:55.344Z,7.47
2023-04-25T12:13:01.533Z,7.83
2023-04-25T12:18:07.340Z,6.93
2023-04-25T12:23:15.659Z,8.68
2023-04-25T12:28:21.300Z,7.55
2023-04-25T12:33:25.121Z,6.28
2023-04-25T12:38:35.529Z,4.55
2023-04-25T12:43:38.998Z,5.95
2023-04-25T12:48:42.788Z,7.63
2023-04-25T12:53:47.912Z,4.65
2023-04-25T12:58:52.287Z,5.95
2023-04-25T13:03:56.680Z,5.03
2023-04-25T13:09:01.517Z,5.00
2023-04-25T13:14:05.270Z,4.30
2023-04-25T13:19:12.073Z,5.18
2023-04-25T13:24:17.429Z,6.50
2023-04-25T13:29:21.627Z,3.60
2023-04-25T13:34:25.675Z,6.17
2023-04-25T13:39:31.012Z,4.00
2023-04-25T13:44:34.647Z,3.45
2023-04-25T13:49:38.571Z,3.75
2023-04-25T13:54:44.361Z,4.20
2023-04-25T13:59:48.460Z,5.78
2023-04-25T14:04:55.081Z,4.05
2023-04-25T14:10:00.811Z,7.88
2023-04-25T14:15:22.904Z,5.40
2023-04-25T14:20:45.048Z,5.35
2023-04-25T14:26:25.529Z,6.38
2023-04-25T14:31:47.982Z,4.28
2023-04-25T14:37:10.908Z,4.65
2023-04-25T14:42:35.657Z,6.57
2023-04-25T14:47:40.726Z,5.40
2023-04-25T14:52:44.233Z,4.35
2023-04-25T14:57:49.728Z,3.20
2023-04-25T15:02:53.996Z,3.03
2023-04-25T15:08:19.965Z,6.28
2023-04-25T15:13:45.610Z,5.03
2023-04-25T15:19:09.929Z,4.60
2023-04-25T15:24:32.979Z,4.32
2023-04-25T15:29:37.983Z,2.58
2023-04-25T15:34:41.502Z,6.50
2023-04-25T15:39:46.643Z,5.38
2023-04-25T15:44:51.650Z,3.53
2023-04-25T15:49:54.968Z,4.28
2023-04-25T15:54:58.909Z,5.88
2023-04-25T16:00:13.284Z,7.53
2023-04-25T16:05:29.276Z,3.50
2023-04-25T16:10:33.098Z,3.50
2023-04-25T16:15:58.370Z,3.40
2023-04-25T16:21:02.093Z,6.40
2023-04-25T16:26:05.716Z,5.95
2023-04-25T16:31:10.829Z,9.40
2023-04-25T16:36:14.892Z,4.00
2023-04-25T16:41:19.026Z,6.40
2023-04-25T16:46:24.125Z,4.83
2023-04-25T16:51:40.491Z,6.57
2023-04-25T16:56:49.304Z,6.57
2023-04-25T17:02:12.371Z,5.73
2023-04-25T17:07:16.074Z,3.40
2023-04-25T17:12:21.935Z,7.10
2023-04-25T17:17:27.298Z,4.90
2023-04-25T17:22:35.247Z,5.27
2023-04-25T17:27:39.125Z,5.83
2023-04-25T17:32:43.983Z,7.50
2023-04-25T17:37:48.860Z,6.20
2023-04-25T17:42:55.425Z,3.93
2023-04-25T17:48:02.710Z,4.40
2023-04-25T17:53:06.134Z,4.33
2023-04-25T17:58:10.146Z,4.47
2023-04-25T18:03:17.681Z,4.30
2023-04-25T18:08:22.792Z,4.47
2023-04-25T18:13:27.707Z,5.27
2023-04-25T18:18:34.744Z,5.50
2023-04-25T18:23:39.713Z,7.23
2023-04-25T18:28:45.475Z,2.73
2023-04-25T18:33:51.786Z,4.43
2023-04-25T18:39:05.432Z,6.13
2023-04-25T18:44:15.440Z,4.43
2023-04-25T18:49:21.649Z,3.00
2023-04-25T18:54:29.171Z,2.37
2023-04-25T18:59:33.836Z,1.30
2023-04-25T19:04:57.208Z,4.40
2023-04-25T19:10:11.131Z,4.17
2023-04-25T19:15:27.297Z,8.37
2023-04-25T19:20:53.964Z,8.00
2023-04-25T19:26:07.077Z,3.50
2023-04-25T19:31:17.899Z,2.90
2023-04-25T19:36:26.019Z,3.60
2023-04-25T19:41:36.172Z,5.23
2023-04-25T19:46:44.200Z,3.43
2023-04-25T19:51:55.918Z,2.87
2023-04-25T19:57:00.526Z,4.77
2023-04-25T20:02:07.251Z,3.77
2023-04-25T20:07:12.581Z,3.17
2023-04-25T20:12:16.615Z,4.23
2023-04-25T20:17:20.103Z,4.57
2023-04-25T20:22:25.774Z,4.87
2023-04-25T20:27:29.899Z,4.10
2023-04-25T20:32:38.042Z,3.67
2023-04-25T20:37:43.826Z,5.37
2023-04-25T20:42:48.931Z,4.13
2023-04-25T20:47:53.680Z,4.63
2023-04-25T20:52:58.534Z,2.63
2023-04-25T20:58:08.503Z,4.57
2023-04-25T21:03:13.255Z,2.97
2023-04-25T21:08:18.730Z,4.20
2023-04-25T21:13:24.278Z,4.17
2023-04-25T21:18:30.130Z,3.50
2023-04-25T21:23:38.132Z,3.60
2023-04-25T21:28:41.906Z,5.73
2023-04-25T21:33:45.513Z,6.77
2023-04-25T21:38:50.461Z,3.27
2023-04-25T21:43:54.294Z,3.17
2023-04-25T21:48:57.751Z,4.37
2023-04-25T21:54:05.439Z,3.00
2023-04-25T21:59:08.950Z,4.47
2023-04-25T22:04:12.984Z,4.23
2023-04-25T22:09:18.474Z,5.03
2023-04-25T22:14:23.228Z,3.33
2023-04-25T22:19:28.493Z,4.77
2023-04-25T22:24:33.306Z,4.27
2023-04-25T22:29:42.255Z,2.77
2023-04-25T22:34:46.155Z,3.30
2023-04-25T22:39:53.142Z,2.13
2023-04-25T22:44:56.581Z,4.47
2023-04-25T22:50:00.543Z,4.93
2023-04-25T22:55:05.994Z,3.20
2023-04-25T23:00:16.008Z,3.33
2023-04-25T23:05:20.389Z,4.43
2023-04-25T23:10:26.026Z,4.00
2023-04-25T23:15:39.709Z,5.70
2023-04-25T23:20:43.304Z,4.57
2023-04-25T23:25:49.250Z,4.23
2023-04-25T23:30:53.110Z,5.90
2023-04-25T23:35:56.817Z,5.07
2023-04-25T23:41:03.423Z,5.67
2023-04-25T23:46:10.145Z,3.17
2023-04-25T23:51:14.234Z,4.17
2023-04-25T23:56:19.256Z,3.50
